createdAt,value
2022-10-19T00:00:26.238Z,3.77
2022-10-19T00:02:58.462Z,3.83
2022-10-19T00:05:34.388Z,3.20
2022-10-19T00:08:08.250Z,3.10
2022-10-19T00:10:42.951Z,3.90
2022-10-19T00:13:15.209Z,3.87
2022-10-19T00:15:48.010Z,3.20
2022-10-19T00:18:18.747Z,2.70
2022-10-19T00:20:49.540Z,3.03
2022-10-19T00:23:21.043Z,3.33
2022-10-19T00:26:00.888Z,3.10
2022-10-19T00:28:32.335Z,3.20
2022-10-19T00:31:05.777Z,3.40
2022-10-19T00:33:38.150Z,3.30
2022-10-19T00:36:19.677Z,3.30
2022-10-19T00:38:51.763Z,3.27
2022-10-19T00:41:35.122Z,2.50
2022-10-19T00:44:08.307Z,2.90
2022-10-19T00:46:44.369Z,3.87
2022-10-19T00:49:20.112Z,3.00
2022-10-19T00:51:54.192Z,3.10
2022-10-19T00:54:29.860Z,3.33
2022-10-19T00:57:07.777Z,3.60
2022-10-19T00:59:46.766Z,3.20
2022-10-19T01:02:17.728Z,3.00
2022-10-19T01:04:53.029Z,3.27
2022-10-19T01:07:24.182Z,2.73
2022-10-19T01:09:56.335Z,3.03
2022-10-19T01:12:59.896Z,3.20
2022-10-19T01:15:39.441Z,2.87
2022-10-19T01:18:23.307Z,2.70
2022-10-19T01:21:33.210Z,3.10
2022-10-19T01:24:42.513Z,3.10
2022-10-19T01:27:36.297Z,3.10
2022-10-19T01:30:20.890Z,2.60
2022-10-19T01:33:15.211Z,3.10
2022-10-19T01:35:53.564Z,2.80
2022-10-19T01:38:30.092Z,2.60
2022-10-19T01:41:17.614Z,3.00
2022-10-19T01:43:54.611Z,3.37
2022-10-19T01:46:35.022Z,3.03
2022-10-19T01:49:11.841Z,2.90
2022-10-19T01:51:47.556Z,3.43
2022-10-19T01:54:21.684Z,2.77
2022-10-19T01:56:55.048Z,2.67
2022-10-19T01:59:31.729Z,2.67
2022-10-19T02:02:06.954Z,2.67
2022-10-19T02:04:39.430Z,3.23
2022-10-19T02:07:13.739Z,3.10
2022-10-19T02:09:44.532Z,3.60
2022-10-19T02:12:16.143Z,2.70
2022-10-19T02:14:52.211Z,3.00
2022-10-19T02:17:30.048Z,2.80
2022-10-19T02:20:01.708Z,3.23
2022-10-19T02:22:33.971Z,3.10
2022-10-19T02:25:07.104Z,2.97
2022-10-19T02:27:38.974Z,2.80
2022-10-19T02:30:11.590Z,2.93
2022-10-19T02:32:50.337Z,3.07
2022-10-19T02:35:22.538Z,2.70
2022-10-19T02:37:55.890Z,3.30
2022-10-19T02:40:27.528Z,2.87
2022-10-19T02:43:06.309Z,2.50
2022-10-19T02:45:41.664Z,3.63
2022-10-19T02:48:21.397Z,3.10
2022-10-19T02:50:52.425Z,3.07
2022-10-19T02:53:25.508Z,3.03
2022-10-19T02:55:59.156Z,2.60
2022-10-19T02:58:30.487Z,3.50
2022-10-19T03:01:01.257Z,3.13
2022-10-19T03:03:34.600Z,3.00
2022-10-19T03:06:08.782Z,3.13
2022-10-19T03:08:39.746Z,2.80
2022-10-19T03:11:10.848Z,3.00
2022-10-19T03:13:44.896Z,2.73
2022-10-19T03:16:16.369Z,2.83
2022-10-19T03:18:50.871Z,2.70
2022-10-19T03:21:22.382Z,3.10
2022-10-19T03:23:56.637Z,3.43
2022-10-19T03:26:27.657Z,3.30
2022-10-19T03:28:58.485Z,3.00
2022-10-19T03:31:30.500Z,3.07
2022-10-19T03:34:06.155Z,3.33
2022-10-19T03:36:38.691Z,3.60
2022-10-19T03:39:12.991Z,3.23
2022-10-19T03:41:47.187Z,3.33
2022-10-19T03:44:17.951Z,3.40
2022-10-19T03:46:48.933Z,3.90
2022-10-19T03:49:27.400Z,3.80
2022-10-19T03:51:58.175Z,3.73
2022-10-19T03:54:28.967Z,4.07
2022-10-19T03:57:00.026Z,3.67
2022-10-19T03:59:34.943Z,3.57
2022-10-19T04:02:06.457Z,4.27
2022-10-19T04:04:40.137Z,3.50
2022-10-19T04:07:15.439Z,3.93
2022-10-19T04:09:47.611Z,4.40
2022-10-19T04:12:18.350Z,4.07
2022-10-19T04:14:57.591Z,3.30
2022-10-19T04:17:28.902Z,3.80
2022-10-19T04:20:02.248Z,3.57
2022-10-19T04:22:33.072Z,3.90
2022-10-19T04:25:14.086Z,3.97
2022-10-19T04:27:46.219Z,4.83
2022-10-19T04:30:16.975Z,3.80
2022-10-19T04:32:53.360Z,4.00
2022-10-19T04:35:26.739Z,3.63
2022-10-19T04:37:57.595Z,3.27
2022-10-19T04:40:34.318Z,3.77
2022-10-19T04:43:06.065Z,4.17
2022-10-19T04:45:38.866Z,4.27
2022-10-19T04:48:15.032Z,4.13
2022-10-19T04:50:48.708Z,3.83
2022-10-19T04:53:31.066Z,4.20
2022-10-19T04:56:02.084Z,4.30
2022-10-19T04:58:32.915Z,4.60
2022-10-19T05:01:15.911Z,4.43
2022-10-19T05:03:47.279Z,3.70
2022-10-19T05:06:20.656Z,4.20
2022-10-19T05:08:52.425Z,5.50
2022-10-19T05:11:26.304Z,4.73
2022-10-19T05:13:58.265Z,5.87
2022-10-19T05:16:29.092Z,5.50
2022-10-19T05:19:02.790Z,4.87
2022-10-19T05:21:52.788Z,4.47
2022-10-19T05:24:33.841Z,6.23
2022-10-19T05:27:04.680Z,5.20
2022-10-19T05:29:36.802Z,6.27
2022-10-19T05:32:09.395Z,5.80
2022-10-19T05:34:45.887Z,6.33
2022-10-19T05:37:19.798Z,8.90
2022-10-19T05:39:52.852Z,8.17
2022-10-19T05:42:28.195Z,5.90
2022-10-19T05:44:59.020Z,6.93
2022-10-19T05:47:31.075Z,7.77
2022-10-19T05:50:02.061Z,6.63
2022-10-19T05:52:39.900Z,7.60
2022-10-19T05:55:12.605Z,7.10
2022-10-19T05:57:44.369Z,7.20
2022-10-19T06:00:19.494Z,8.33
2022-10-19T06:02:58.919Z,7.67
2022-10-19T06:05:30.008Z,7.10
2022-10-19T06:08:05.116Z,6.53
2022-10-19T06:10:35.868Z,7.37
2022-10-19T06:13:06.945Z,6.40
2022-10-19T06:15:40.196Z,5.93
2022-10-19T06:18:11.766Z,6.53
2022-10-19T06:20:45.187Z,5.70
2022-10-19T06:23:18.533Z,5.80
2022-10-19T06:25:49.476Z,5.63
2022-10-19T06:28:20.376Z,7.80
2022-10-19T06:30:51.198Z,6.83
2022-10-19T06:33:21.946Z,6.07
2022-10-19T06:35:53.212Z,5.50
2022-10-19T06:38:26.491Z,5.50
2022-10-19T06:41:01.285Z,5.77
2022-10-19T06:43:32.124Z,5.43
2022-10-19T06:46:07.332Z,6.37
2022-10-19T06:48:38.414Z,5.30
2022-10-19T06:51:10.161Z,4.87
2022-10-19T06:53:43.507Z,5.43
2022-10-19T06:56:14.299Z,6.87
2022-10-19T06:58:46.796Z,6.57
2022-10-19T07:01:17.857Z,6.00
2022-10-19T07:03:48.763Z,6.77
2022-10-19T07:06:19.799Z,6.90
2022-10-19T07:08:54.761Z,5.60
2022-10-19T07:11:25.878Z,5.83
2022-10-19T07:13:56.645Z,6.03
2022-10-19T07:16:28.991Z,7.80
2022-10-19T07:18:59.749Z,6.37
2022-10-19T07:21:30.508Z,7.60
2022-10-19T07:24:03.885Z,7.50
2022-10-19T07:26:34.661Z,7.97
2022-10-19T07:29:05.759Z,6.30
2022-10-19T07:31:36.857Z,7.10
2022-10-19T07:34:08.571Z,6.47
2022-10-19T07:36:39.859Z,7.60
2022-10-19T07:39:15.260Z,7.77
2022-10-19T07:41:47.142Z,10.03
2022-10-19T07:44:18.588Z,7.40
2022-10-19T07:46:50.416Z,9.53
2022-10-19T07:49:21.866Z,8.70
2022-10-19T07:51:55.888Z,10.60
2022-10-19T07:54:29.558Z,10.20
2022-10-19T07:57:03.286Z,8.33
2022-10-19T07:59:34.000Z,8.10
2022-10-19T08:02:07.849Z,10.30
2022-10-19T08:07:30.453Z,9.23
2022-10-19T08:10:03.767Z,9.43
2022-10-19T08:12:34.866Z,9.40
2022-10-19T08:15:07.173Z,7.97
2022-10-19T08:17:39.785Z,8.87
2022-10-19T08:20:13.330Z,7.60
2022-10-19T08:22:45.276Z,7.67
2022-10-19T08:25:19.024Z,7.57
2022-10-19T08:27:49.742Z,8.10
2022-10-19T08:30:21.701Z,8.03
2022-10-19T08:32:52.533Z,8.00
2022-10-19T08:35:23.587Z,8.30
2022-10-19T08:37:54.602Z,8.50
2022-10-19T08:40:32.034Z,8.47
2022-10-19T08:43:15.156Z,6.60
2022-10-19T08:45:50.925Z,8.20
2022-10-19T08:48:28.326Z,6.50
2022-10-19T08:51:01.248Z,7.83
2022-10-19T08:53:42.834Z,6.30
2022-10-19T08:56:50.970Z,6.67
2022-10-19T08:59:33.192Z,7.30
2022-10-19T09:02:12.185Z,5.70
2022-10-19T09:04:45.310Z,4.33
2022-10-19T09:07:28.713Z,4.30
2022-10-19T09:10:03.322Z,4.30
2022-10-19T09:12:45.549Z,3.70
2022-10-19T09:15:20.648Z,3.30
2022-10-19T09:17:52.099Z,3.20
2022-10-19T09:20:25.244Z,3.30
2022-10-19T09:23:07.682Z,4.00
2022-10-19T09:25:43.062Z,3.50
2022-10-19T09:28:39.648Z,3.67
2022-10-19T09:31:17.731Z,3.90
2022-10-19T09:33:58.318Z,4.60
2022-10-19T09:36:51.170Z,4.87
2022-10-19T09:39:24.520Z,3.13
2022-10-19T09:42:02.666Z,3.03
2022-10-19T09:44:36.506Z,2.70
2022-10-19T09:47:24.212Z,2.90
2022-10-19T09:50:10.145Z,2.90
2022-10-19T09:52:42.939Z,2.83
2022-10-19T09:55:26.740Z,2.47
2022-10-19T09:58:09.524Z,3.40
2022-10-19T10:00:45.357Z,2.77
2022-10-19T10:03:28.979Z,3.00
2022-10-19T10:06:01.654Z,2.27
2022-10-19T10:08:35.659Z,2.70
2022-10-19T10:11:10.796Z,1.73
2022-10-19T10:13:46.119Z,1.73
2022-10-19T10:16:23.871Z,1.50
2022-10-19T10:18:58.762Z,1.50
2022-10-19T10:21:34.907Z,2.07
2022-10-19T10:24:08.671Z,1.73
2022-10-19T10:26:43.052Z,1.50
2022-10-19T10:29:29.872Z,1.90
2022-10-19T10:32:07.826Z,2.20
2022-10-19T10:34:58.575Z,1.70
2022-10-19T10:37:38.426Z,2.10
2022-10-19T10:40:23.240Z,2.07
2022-10-19T10:42:57.674Z,2.23
2022-10-19T10:45:36.620Z,1.90
2022-10-19T10:48:27.007Z,3.30
2022-10-19T10:51:02.513Z,2.90
2022-10-19T10:53:39.779Z,2.73
2022-10-19T10:56:24.824Z,3.10
2022-10-19T10:59:01.794Z,3.20
2022-10-19T11:01:37.982Z,3.00
2022-10-19T11:04:15.338Z,2.63
2022-10-19T11:06:55.870Z,2.30
2022-10-19T11:09:34.336Z,2.07
2022-10-19T11:12:07.885Z,2.30
2022-10-19T11:14:46.478Z,1.80
2022-10-19T11:17:21.757Z,1.97
2022-10-19T11:19:56.347Z,1.47
2022-10-19T11:22:32.953Z,1.77
2022-10-19T11:25:23.723Z,1.80
2022-10-19T11:28:05.273Z,1.80
2022-10-19T11:30:45.338Z,1.40
2022-10-19T11:33:27.742Z,1.50
2022-10-19T11:36:04.938Z,1.80
2022-10-19T11:38:45.949Z,1.70
2022-10-19T11:41:29.865Z,1.87
2022-10-19T11:44:18.473Z,1.77
2022-10-19T11:47:00.074Z,1.73
2022-10-19T11:49:44.278Z,1.97
2022-10-19T11:52:23.164Z,1.77
2022-10-19T11:55:05.399Z,1.70
2022-10-19T11:57:52.207Z,1.67
2022-10-19T12:00:38.722Z,2.10
2022-10-19T12:03:35.039Z,1.73
2022-10-19T12:06:14.799Z,1.80
2022-10-19T12:09:03.941Z,1.83
2022-10-19T12:11:49.794Z,1.60
2022-10-19T12:14:23.761Z,2.00
2022-10-19T12:16:58.190Z,1.83
2022-10-19T12:19:34.012Z,1.63
2022-10-19T12:22:07.307Z,2.30
2022-10-19T12:24:40.720Z,2.00
2022-10-19T12:27:18.007Z,2.10
2022-10-19T12:29:52.866Z,1.97
2022-10-19T12:32:27.744Z,2.23
2022-10-19T12:35:07.229Z,1.90
2022-10-19T12:37:44.870Z,2.20
2022-10-19T12:40:27.328Z,1.97
2022-10-19T12:43:06.087Z,1.73
2022-10-19T12:45:39.270Z,2.23
2022-10-19T12:48:25.166Z,2.23
2022-10-19T12:51:12.103Z,1.73
2022-10-19T12:53:45.487Z,1.83
2022-10-19T12:56:23.086Z,2.00
2022-10-19T12:58:57.895Z,1.97
2022-10-19T13:01:31.619Z,1.97
2022-10-19T13:04:14.615Z,2.00
2022-10-19T13:06:48.489Z,2.00
2022-10-19T13:09:29.663Z,2.10
2022-10-19T13:12:30.563Z,2.10
2022-10-19T13:15:05.126Z,1.60
2022-10-19T13:17:45.658Z,2.03
2022-10-19T13:20:50.810Z,2.40
2022-10-19T13:23:42.888Z,2.10
2022-10-19T13:26:33.419Z,2.27
2022-10-19T13:29:04.672Z,2.77
2022-10-19T13:31:39.862Z,2.30
2022-10-19T13:34:14.115Z,1.93
2022-10-19T13:37:02.838Z,2.27
2022-10-19T13:39:34.014Z,2.10
2022-10-19T13:42:04.979Z,2.47
2022-10-19T13:44:39.549Z,2.20
2022-10-19T13:47:34.353Z,1.70
2022-10-19T13:50:29.194Z,3.03
2022-10-19T13:53:27.511Z,2.27
2022-10-19T13:56:11.755Z,1.83
2022-10-19T13:59:24.787Z,2.00
2022-10-19T14:02:33.523Z,2.17
2022-10-19T14:05:21.556Z,2.00
2022-10-19T14:08:04.239Z,1.93
2022-10-19T14:10:56.215Z,1.60
2022-10-19T14:13:27.135Z,1.93
2022-10-19T14:16:00.332Z,1.77
2022-10-19T14:18:35.268Z,2.47
2022-10-19T14:21:08.311Z,1.50
2022-10-19T14:23:41.778Z,1.80
2022-10-19T14:26:22.283Z,1.73
2022-10-19T14:28:57.039Z,1.57
2022-10-19T14:31:34.354Z,1.87
2022-10-19T14:34:11.195Z,1.80
2022-10-19T14:36:46.622Z,1.30
2022-10-19T14:39:33.770Z,2.03
2022-10-19T14:42:07.528Z,1.70
2022-10-19T14:44:42.750Z,1.50
2022-10-19T14:47:21.757Z,1.67
2022-10-19T14:49:55.446Z,1.67
2022-10-19T14:52:33.899Z,1.63
2022-10-19T14:55:11.593Z,1.83
2022-10-19T14:57:49.172Z,1.20
2022-10-19T15:00:21.845Z,1.30
2022-10-19T15:03:00.898Z,1.73
2022-10-19T15:05:37.853Z,1.50
2022-10-19T15:08:11.691Z,1.40
2022-10-19T15:10:47.791Z,1.60
2022-10-19T15:13:26.687Z,1.37
2022-10-19T15:16:00.390Z,1.80
2022-10-19T15:18:49.783Z,1.13
2022-10-19T15:21:24.243Z,1.20
2022-10-19T15:23:55.536Z,1.50
2022-10-19T15:26:32.006Z,1.63
2022-10-19T15:29:12.946Z,1.57
2022-10-19T15:31:43.988Z,1.53
2022-10-19T15:34:27.276Z,1.53
2022-10-19T15:37:03.799Z,1.53
2022-10-19T15:39:40.123Z,1.43
2022-10-19T15:42:41.219Z,1.70
2022-10-19T15:45:32.773Z,1.50
2022-10-19T15:48:28.828Z,1.70
2022-10-19T15:51:00.743Z,2.13
2022-10-19T15:53:39.645Z,1.63
2022-10-19T15:56:12.518Z,2.40
2022-10-19T15:58:45.853Z,2.07
2022-10-19T16:01:19.698Z,1.67
2022-10-19T16:03:51.262Z,2.10
2022-10-19T16:06:24.072Z,2.20
2022-10-19T16:08:59.071Z,1.83
2022-10-19T16:11:33.534Z,2.40
2022-10-19T16:14:04.335Z,2.20
2022-10-19T16:16:35.703Z,2.30
2022-10-19T16:19:06.696Z,2.40
2022-10-19T16:21:39.374Z,3.13
2022-10-19T16:24:13.573Z,2.47
2022-10-19T16:26:44.392Z,2.30
2022-10-19T16:29:18.641Z,2.97
2022-10-19T16:31:49.430Z,2.60
2022-10-19T16:34:20.424Z,2.40
2022-10-19T16:36:51.293Z,2.33
2022-10-19T16:39:26.696Z,3.03
2022-10-19T16:41:57.740Z,2.27
2022-10-19T16:44:28.555Z,2.60
2022-10-19T16:47:02.451Z,2.47
2022-10-19T16:49:33.307Z,2.50
2022-10-19T16:52:06.369Z,2.80
2022-10-19T16:54:39.699Z,2.43
2022-10-19T16:57:10.588Z,2.30
2022-10-19T16:59:41.471Z,2.50
2022-10-19T17:02:14.627Z,2.40
2022-10-19T17:04:45.633Z,2.60
2022-10-19T17:07:16.617Z,2.30
2022-10-19T17:09:54.466Z,2.70
2022-10-19T17:12:28.278Z,2.70
2022-10-19T17:15:23.620Z,2.60
2022-10-19T17:17:52.323Z,2.50
2022-10-19T17:20:23.459Z,2.63
2022-10-19T17:22:58.731Z,2.50
2022-10-19T17:25:32.401Z,2.40
2022-10-19T17:28:03.172Z,2.30
2022-10-19T17:30:33.950Z,2.93
2022-10-19T17:33:04.718Z,2.47
2022-10-19T17:35:38.383Z,2.40
2022-10-19T17:38:09.154Z,2.40
2022-10-19T17:40:42.495Z,2.40
2022-10-19T17:43:14.066Z,2.87
2022-10-19T17:45:45.579Z,2.60
2022-10-19T17:48:16.781Z,3.00
2022-10-19T17:51:01.447Z,3.37
2022-10-19T17:53:33.292Z,2.67
2022-10-19T17:56:09.489Z,3.00
2022-10-19T17:58:40.712Z,3.03
2022-10-19T18:01:13.231Z,2.67
2022-10-19T18:03:44.146Z,2.67
2022-10-19T18:06:17.102Z,2.53
2022-10-19T18:08:50.450Z,2.70
2022-10-19T18:11:25.759Z,2.50
2022-10-19T18:13:59.405Z,2.30
2022-10-19T18:16:32.647Z,2.77
2022-10-19T18:19:05.545Z,3.20
2022-10-19T18:21:38.976Z,2.60
2022-10-19T18:24:14.408Z,2.70
2022-10-19T18:26:49.751Z,2.73
2022-10-19T18:29:23.178Z,2.63
2022-10-19T18:31:55.052Z,2.43
2022-10-19T18:34:27.972Z,2.70
2022-10-19T18:36:58.789Z,3.10
2022-10-19T18:39:29.497Z,3.43
2022-10-19T18:42:02.888Z,3.13
2022-10-19T18:44:36.289Z,2.30
2022-10-19T18:47:07.239Z,3.00
2022-10-19T18:49:41.478Z,3.03
2022-10-19T18:52:12.292Z,2.93
2022-10-19T18:54:45.155Z,3.10
2022-10-19T18:57:18.503Z,3.03
2022-10-19T18:59:50.178Z,3.40
2022-10-19T19:02:22.776Z,3.90
2022-10-19T19:04:59.096Z,3.13
2022-10-19T19:07:32.449Z,3.03
2022-10-19T19:10:04.212Z,3.17
2022-10-19T19:12:39.552Z,3.60
2022-10-19T19:15:11.611Z,3.50
2022-10-19T19:17:42.647Z,3.70
2022-10-19T19:20:13.692Z,4.23
2022-10-19T19:22:44.457Z,4.00
2022-10-19T19:25:17.084Z,4.37
2022-10-19T19:27:50.387Z,4.07
2022-10-19T19:30:21.200Z,3.23
2022-10-19T19:32:51.968Z,3.87
2022-10-19T19:35:22.719Z,3.13
2022-10-19T19:37:53.579Z,3.60
2022-10-19T19:40:24.873Z,3.20
2022-10-19T19:43:04.302Z,3.90
2022-10-19T19:45:35.323Z,4.47
2022-10-19T19:48:06.960Z,3.50
2022-10-19T19:50:38.948Z,4.10
2022-10-19T19:53:09.735Z,4.23
2022-10-19T19:55:42.606Z,4.33
2022-10-19T19:58:16.331Z,4.10
2022-10-19T20:00:47.448Z,4.00
2022-10-19T20:03:20.004Z,3.50
2022-10-19T20:05:50.844Z,4.40
2022-10-19T20:08:23.177Z,3.77
2022-10-19T20:10:53.869Z,3.80
2022-10-19T20:13:27.520Z,3.93
2022-10-19T20:15:59.074Z,3.90
2022-10-19T20:18:30.760Z,4.70
2022-10-19T20:21:03.940Z,4.33
2022-10-19T20:23:35.410Z,3.93
2022-10-19T20:26:06.215Z,4.80
2022-10-19T20:28:43.309Z,4.70
2022-10-19T20:31:15.620Z,4.13
2022-10-19T20:33:47.523Z,4.00
2022-10-19T20:36:21.404Z,4.20
2022-10-19T20:38:53.535Z,4.83
2022-10-19T20:41:27.314Z,4.00
2022-10-19T20:44:00.764Z,3.90
2022-10-19T20:46:33.002Z,3.97
2022-10-19T20:49:04.719Z,3.50
2022-10-19T20:51:40.550Z,5.30
2022-10-19T20:54:14.046Z,4.47
2022-10-19T20:56:45.140Z,4.23
2022-10-19T20:59:20.918Z,4.00
2022-10-19T21:01:54.333Z,4.87
2022-10-19T21:04:25.905Z,4.50
2022-10-19T21:06:57.278Z,4.87
2022-10-19T21:09:31.485Z,5.10
2022-10-19T21:12:08.093Z,4.63
2022-10-19T21:14:41.851Z,4.67
2022-10-19T21:17:12.543Z,4.40
2022-10-19T21:19:43.276Z,5.90
2022-10-19T21:22:17.123Z,4.90
2022-10-19T21:24:47.823Z,5.97
2022-10-19T21:27:18.532Z,5.70
2022-10-19T21:29:51.911Z,4.90
2022-10-19T21:32:22.751Z,5.63
2022-10-19T21:34:53.497Z,4.50
2022-10-19T21:37:24.324Z,6.30
2022-10-19T21:39:57.446Z,4.30
2022-10-19T21:42:28.453Z,5.00
2022-10-19T21:45:25.710Z,4.97
2022-10-19T21:47:54.932Z,4.40
2022-10-19T21:50:25.679Z,4.50
2022-10-19T21:52:57.422Z,4.80
2022-10-19T21:55:29.645Z,5.60
2022-10-19T21:58:00.982Z,5.77
2022-10-19T22:00:35.017Z,5.20
2022-10-19T22:03:06.165Z,5.60
2022-10-19T22:05:36.906Z,5.57
2022-10-19T22:08:08.101Z,5.73
2022-10-19T22:10:42.237Z,6.27
2022-10-19T22:13:13.087Z,5.70
2022-10-19T22:15:46.976Z,5.20
2022-10-19T22:18:17.797Z,4.93
2022-10-19T22:20:48.964Z,5.37
2022-10-19T22:23:19.778Z,5.10
2022-10-19T22:25:51.118Z,5.60
2022-10-19T22:28:21.844Z,6.20
2022-10-19T22:30:59.247Z,6.33
2022-10-19T22:33:30.057Z,7.33
2022-10-19T22:36:01.808Z,5.30
2022-10-19T22:38:32.776Z,5.97
2022-10-19T22:41:03.958Z,4.70
2022-10-19T22:43:34.770Z,5.17
2022-10-19T22:46:08.164Z,6.60
2022-10-19T22:48:42.314Z,6.47
2022-10-19T22:51:15.217Z,6.90
2022-10-19T22:53:45.968Z,6.50
2022-10-19T22:56:16.852Z,5.43
2022-10-19T22:58:47.895Z,5.50
2022-10-19T23:01:21.452Z,6.43
2022-10-19T23:03:52.280Z,6.20
2022-10-19T23:06:23.091Z,6.20
2022-10-19T23:08:54.462Z,7.00
2022-10-19T23:11:25.526Z,4.90
2022-10-19T23:13:56.315Z,5.50
2022-10-19T23:16:29.661Z,5.13
2022-10-19T23:19:00.521Z,7.10
2022-10-19T23:21:31.354Z,6.87
2022-10-19T23:24:02.642Z,6.60
2022-10-19T23:26:34.636Z,6.43
2022-10-19T23:29:05.376Z,5.60
2022-10-19T23:31:38.692Z,6.10
2022-10-19T23:34:09.429Z,6.70
2022-10-19T23:36:41.360Z,6.17
2022-10-19T23:39:12.194Z,7.03
2022-10-19T23:41:43.160Z,6.27
2022-10-19T23:44:14.502Z,8.33
2022-10-19T23:46:47.865Z,6.67
2022-10-19T23:49:18.587Z,7.30
2022-10-19T23:51:49.271Z,6.53
2022-10-19T23:54:19.999Z,6.77
2022-10-19T23:56:51.028Z,6.00
2022-10-19T23:59:22.168Z,6.00
